createdAt,value
2023-03-24T00:00:57.000Z,996.37
2023-03-24T00:01:56.997Z,996.40
2023-03-24T00:02:57.086Z,996.38
2023-03-24T00:03:57.057Z,996.43
2023-03-24T00:04:56.978Z,996.41
2023-03-24T00:05:56.954Z,996.38
2023-03-24T00:06:56.933Z,996.42
2023-03-24T00:08:01.662Z,996.40
2023-03-24T00:08:57.900Z,996.39
2023-03-24T00:09:56.897Z,996.46
2023-03-24T00:10:56.879Z,996.35
2023-03-24T00:11:56.874Z,996.34
2023-03-24T00:12:56.883Z,996.31
2023-03-24T00:13:56.857Z,996.35
2023-03-24T00:14:56.843Z,996.35
2023-03-24T00:15:56.913Z,996.19
2023-03-24T00:16:56.821Z,996.21
2023-03-24T00:17:56.845Z,996.29
2023-03-24T00:18:56.796Z,996.21
2023-03-24T00:19:56.787Z,996.11
2023-03-24T00:20:56.798Z,996.14
2023-03-24T00:21:56.766Z,996.07
2023-03-24T00:22:57.116Z,996.01
2023-03-24T00:23:56.748Z,996.00
2023-03-24T00:24:56.722Z,996.09
2023-03-24T00:25:56.737Z,996.04
2023-03-24T00:26:56.699Z,995.94
2023-03-24T00:27:56.730Z,995.99
2023-03-24T00:28:56.688Z,995.99
2023-03-24T00:29:56.671Z,996.02
2023-03-24T00:30:56.674Z,995.95
2023-03-24T00:31:56.667Z,995.90
2023-03-24T00:32:56.757Z,995.93
2023-03-24T00:33:56.642Z,995.90
2023-03-24T00:34:56.623Z,995.89
2023-03-24T00:35:56.630Z,995.94
2023-03-24T00:36:56.618Z,995.91
2023-03-24T00:37:56.613Z,995.89
2023-03-24T00:38:56.614Z,995.92
2023-03-24T00:39:56.564Z,995.90
2023-03-24T00:40:56.562Z,995.92
2023-03-24T00:41:56.552Z,995.85
2023-03-24T00:42:56.541Z,995.88
2023-03-24T00:43:56.536Z,995.87
2023-03-24T00:44:56.501Z,995.82
2023-03-24T00:45:56.495Z,995.86
2023-03-24T00:46:56.533Z,995.77
2023-03-24T00:47:56.508Z,995.81
2023-03-24T00:48:56.470Z,995.79
2023-03-24T00:49:56.464Z,995.76
2023-03-24T00:50:56.455Z,995.80
2023-03-24T00:51:56.444Z,995.76
2023-03-24T00:52:56.460Z,995.79
2023-03-24T00:53:56.424Z,995.85
2023-03-24T00:54:56.406Z,995.76
2023-03-24T00:55:56.384Z,995.74
2023-03-24T00:56:56.393Z,995.71
2023-03-24T00:57:56.380Z,995.73
2023-03-24T00:58:56.361Z,995.72
2023-03-24T00:59:56.365Z,995.71
2023-03-24T01:00:56.352Z,995.73
2023-03-24T01:01:56.375Z,995.70
2023-03-24T01:02:56.476Z,995.72
2023-03-24T01:03:56.309Z,995.68
2023-03-24T01:04:56.284Z,995.66
2023-03-24T01:05:56.301Z,995.76
2023-03-24T01:06:56.274Z,995.62
2023-03-24T01:07:56.348Z,995.64
2023-03-24T01:08:56.264Z,995.61
2023-03-24T01:09:56.243Z,995.65
2023-03-24T01:10:56.209Z,995.65
2023-03-24T01:11:56.213Z,995.66
2023-03-24T01:12:56.216Z,995.65
2023-03-24T01:13:56.184Z,995.66
2023-03-24T01:14:56.168Z,995.59
2023-03-24T01:15:56.170Z,995.58
2023-03-24T01:16:56.161Z,995.57
2023-03-24T01:17:56.145Z,995.65
2023-03-24T01:18:56.146Z,995.57
2023-03-24T01:19:56.103Z,995.62
2023-03-24T01:20:56.110Z,995.53
2023-03-24T01:21:56.093Z,995.55
2023-03-24T01:22:56.108Z,995.50
2023-03-24T01:23:56.069Z,995.59
2023-03-24T01:24:56.086Z,995.50
2023-03-24T01:25:56.049Z,995.55
2023-03-24T01:26:56.031Z,995.48
2023-03-24T01:27:56.059Z,995.51
2023-03-24T01:28:56.019Z,995.46
2023-03-24T01:29:55.993Z,995.46
2023-03-24T01:30:56.003Z,995.54
2023-03-24T01:31:56.032Z,995.42
2023-03-24T01:32:56.053Z,995.44
2023-03-24T01:33:55.972Z,995.40
2023-03-24T01:34:55.962Z,995.42
2023-03-24T01:35:56.026Z,995.34
2023-03-24T01:36:55.919Z,995.34
2023-03-24T01:37:55.933Z,995.36
2023-03-24T01:38:55.892Z,995.47
2023-03-24T01:39:55.880Z,995.32
2023-03-24T01:40:55.896Z,995.27
2023-03-24T01:41:55.862Z,995.27
2023-03-24T01:42:55.898Z,995.33
2023-03-24T01:43:55.836Z,995.28
2023-03-24T01:44:55.829Z,995.24
2023-03-24T01:45:55.898Z,995.21
2023-03-24T01:46:55.811Z,995.30
2023-03-24T01:47:55.832Z,995.24
2023-03-24T01:48:55.788Z,995.11
2023-03-24T01:49:55.775Z,995.08
2023-03-24T01:50:55.788Z,995.08
2023-03-24T01:51:55.756Z,995.08
2023-03-24T01:52:55.786Z,995.08
2023-03-24T01:53:55.738Z,995.08
2023-03-24T01:54:55.743Z,995.06
2023-03-24T01:55:55.706Z,995.01
2023-03-24T01:56:55.784Z,994.97
2023-03-24T01:57:55.696Z,995.01
2023-03-24T01:58:55.690Z,994.95
2023-03-24T01:59:55.659Z,994.92
2023-03-24T02:00:55.692Z,994.86
2023-03-24T02:01:55.650Z,994.81
2023-03-24T02:02:55.692Z,994.81
2023-03-24T02:03:55.654Z,994.87
2023-03-24T02:04:55.620Z,994.80
2023-03-24T02:05:55.590Z,994.75
2023-03-24T02:06:55.608Z,994.70
2023-03-24T02:07:55.591Z,994.60
2023-03-24T02:08:55.574Z,994.68
2023-03-24T02:09:55.543Z,994.66
2023-03-24T02:10:55.538Z,994.63
2023-03-24T02:11:55.526Z,994.54
2023-03-24T02:12:55.558Z,994.54
2023-03-24T02:13:55.514Z,994.57
2023-03-24T02:14:55.514Z,994.46
2023-03-24T02:15:55.561Z,994.44
2023-03-24T02:16:55.477Z,994.46
2023-03-24T02:17:55.483Z,994.45
2023-03-24T02:18:55.464Z,994.33
2023-03-24T02:19:55.452Z,994.73
2023-03-24T02:20:55.440Z,994.35
2023-03-24T02:21:55.426Z,994.40
2023-03-24T02:22:55.435Z,994.48
2023-03-24T02:23:55.409Z,994.26
2023-03-24T02:24:55.388Z,994.39
2023-03-24T02:25:55.381Z,994.31
2023-03-24T02:26:55.374Z,994.23
2023-03-24T02:27:55.360Z,994.23
2023-03-24T02:28:55.368Z,994.35
2023-03-24T02:29:55.322Z,994.16
2023-03-24T02:30:55.326Z,994.23
2023-03-24T02:31:55.329Z,994.33
2023-03-24T02:32:55.349Z,994.21
2023-03-24T02:33:55.279Z,994.14
2023-03-24T02:34:55.283Z,994.27
2023-03-24T02:35:55.307Z,994.23
2023-03-24T02:36:55.255Z,994.22
2023-03-24T02:37:55.264Z,994.21
2023-03-24T02:38:55.225Z,994.30
2023-03-24T02:39:55.209Z,994.14
2023-03-24T02:40:55.203Z,994.22
2023-03-24T02:41:55.187Z,994.14
2023-03-24T02:42:55.211Z,994.07
2023-03-24T02:43:55.209Z,994.13
2023-03-24T02:44:55.178Z,994.15
2023-03-24T02:45:55.234Z,994.07
2023-03-24T02:46:55.133Z,994.11
2023-03-24T02:47:55.181Z,994.16
2023-03-24T02:48:55.137Z,994.22
2023-03-24T02:49:55.130Z,994.16
2023-03-24T02:50:55.100Z,994.14
2023-03-24T02:51:55.083Z,994.15
2023-03-24T02:52:55.077Z,994.13
2023-03-24T02:53:55.102Z,994.11
2023-03-24T02:54:55.041Z,994.15
2023-03-24T02:55:55.040Z,994.12
2023-03-24T02:56:55.030Z,994.17
2023-03-24T02:57:55.031Z,994.21
2023-03-24T02:58:55.010Z,994.24
2023-03-24T02:59:54.994Z,994.17
2023-03-24T03:00:55.008Z,994.25
2023-03-24T03:01:55.113Z,994.29
2023-03-24T03:02:54.991Z,994.23
2023-03-24T03:03:54.960Z,994.27
2023-03-24T03:04:54.949Z,994.23
2023-03-24T03:05:54.926Z,994.34
2023-03-24T03:06:54.916Z,994.27
2023-03-24T03:07:54.900Z,994.25
2023-03-24T03:08:54.894Z,994.21
2023-03-24T03:09:54.878Z,994.24
2023-03-24T03:10:54.873Z,994.22
2023-03-24T03:11:54.854Z,994.16
2023-03-24T03:12:54.850Z,994.18
2023-03-24T03:13:54.821Z,994.20
2023-03-24T03:14:54.843Z,994.14
2023-03-24T03:15:54.833Z,994.18
2023-03-24T03:16:54.816Z,994.16
2023-03-24T03:17:54.804Z,994.14
2023-03-24T03:18:54.783Z,994.13
2023-03-24T03:19:54.768Z,994.11
2023-03-24T03:20:54.769Z,994.17
2023-03-24T03:21:54.749Z,994.15
2023-03-24T03:22:54.764Z,994.10
2023-03-24T03:23:54.730Z,994.14
2023-03-24T03:24:54.720Z,994.16
2023-03-24T03:25:54.713Z,994.14
2023-03-24T03:26:54.695Z,994.11
2023-03-24T03:27:54.679Z,994.07
2023-03-24T03:28:54.675Z,994.07
2023-03-24T03:29:54.654Z,994.07
2023-03-24T03:30:54.663Z,994.05
2023-03-24T03:31:54.636Z,994.06
2023-03-24T03:32:54.756Z,994.11
2023-03-24T03:33:54.614Z,994.01
2023-03-24T03:34:54.632Z,994.05
2023-03-24T03:35:54.609Z,994.05
2023-03-24T03:36:54.591Z,994.03
2023-03-24T03:37:54.571Z,994.02
2023-03-24T03:38:54.554Z,994.03
2023-03-24T03:39:54.574Z,994.03
2023-03-24T03:40:54.527Z,994.04
2023-03-24T03:41:54.519Z,994.01
2023-03-24T03:42:54.533Z,994.01
2023-03-24T03:43:54.504Z,994.02
2023-03-24T03:44:54.496Z,994.01
2023-03-24T03:45:54.514Z,993.97
2023-03-24T03:46:54.472Z,993.96
2023-03-24T03:47:54.520Z,993.96
2023-03-24T03:48:54.480Z,993.92
2023-03-24T03:49:54.429Z,993.89
2023-03-24T03:51:06.351Z,993.93
2023-03-24T03:51:55.413Z,993.92
2023-03-24T03:52:55.407Z,993.91
2023-03-24T03:53:54.390Z,993.87
2023-03-24T03:54:54.384Z,993.89
2023-03-24T03:55:54.368Z,993.83
2023-03-24T03:56:54.379Z,993.92
2023-03-24T03:57:54.346Z,993.91
2023-03-24T03:58:54.353Z,993.93
2023-03-24T03:59:54.327Z,994.00
2023-03-24T04:00:54.300Z,994.02
2023-03-24T04:01:54.347Z,994.02
2023-03-24T04:02:54.423Z,993.95
2023-03-24T04:03:54.311Z,994.01
2023-03-24T04:05:03.578Z,994.02
2023-03-24T04:05:55.253Z,994.05
2023-03-24T04:06:54.242Z,994.04
2023-03-24T04:07:54.217Z,994.02
2023-03-24T04:08:54.226Z,994.10
2023-03-24T04:09:54.229Z,994.03
2023-03-24T04:10:54.205Z,994.05
2023-03-24T04:11:54.189Z,994.06
2023-03-24T04:12:54.169Z,993.98
2023-03-24T04:13:54.153Z,994.02
2023-03-24T04:14:54.177Z,994.01
2023-03-24T04:15:54.171Z,994.08
2023-03-24T04:16:54.128Z,994.03
2023-03-24T04:17:54.168Z,994.09
2023-03-24T04:18:54.106Z,994.09
2023-03-24T04:19:54.125Z,994.04
2023-03-24T04:20:54.101Z,994.04
2023-03-24T04:21:54.066Z,994.03
2023-03-24T04:22:54.101Z,994.09
2023-03-24T04:23:54.059Z,994.09
2023-03-24T04:24:54.050Z,994.13
2023-03-24T04:25:54.030Z,994.12
2023-03-24T04:26:54.024Z,994.12
2023-03-24T04:27:53.995Z,994.14
2023-03-24T04:28:53.988Z,994.14
2023-03-24T04:29:54.000Z,994.14
2023-03-24T04:30:53.965Z,994.15
2023-03-24T04:31:53.975Z,994.16
2023-03-24T04:32:54.020Z,994.15
2023-03-24T04:33:53.951Z,994.20
2023-03-24T04:34:53.937Z,994.12
2023-03-24T04:35:53.933Z,994.18
2023-03-24T04:36:53.933Z,994.21
2023-03-24T04:37:53.911Z,994.26
2023-03-24T04:38:53.872Z,994.25
2023-03-24T04:39:53.910Z,994.25
2023-03-24T04:40:53.863Z,994.31
2023-03-24T04:41:53.842Z,994.32
2023-03-24T04:42:53.853Z,994.28
2023-03-24T04:43:53.816Z,994.33
2023-03-24T04:44:53.829Z,994.25
2023-03-24T04:45:53.841Z,994.28
2023-03-24T04:46:53.787Z,994.26
2023-03-24T04:47:53.915Z,994.28
2023-03-24T04:48:53.765Z,994.36
2023-03-24T04:49:53.821Z,994.36
2023-03-24T04:50:53.753Z,994.44
2023-03-24T04:51:53.725Z,994.45
2023-03-24T04:52:53.754Z,994.45
2023-03-24T04:53:53.702Z,994.39
2023-03-24T04:54:53.731Z,994.45
2023-03-24T04:55:53.702Z,994.65
2023-03-24T04:56:53.817Z,994.68
2023-03-24T04:57:53.660Z,994.83
2023-03-24T04:58:53.651Z,994.77
2023-03-24T04:59:53.711Z,994.91
2023-03-24T05:00:53.663Z,994.95
2023-03-24T05:01:53.623Z,995.08
2023-03-24T05:02:53.635Z,994.99
2023-03-24T05:03:53.624Z,995.07
2023-03-24T05:04:53.609Z,995.03
2023-03-24T05:05:53.584Z,995.02
2023-03-24T05:06:53.558Z,995.07
2023-03-24T05:07:53.549Z,995.05
2023-03-24T05:08:53.587Z,995.04
2023-03-24T05:09:53.551Z,995.06
2023-03-24T05:10:53.514Z,995.04
2023-03-24T05:11:53.506Z,995.04
2023-03-24T05:12:53.512Z,995.06
2023-03-24T05:13:53.476Z,995.11
2023-03-24T05:14:53.495Z,995.11
2023-03-24T05:15:53.466Z,995.08
2023-03-24T05:16:53.603Z,995.09
2023-03-24T05:17:53.480Z,995.12
2023-03-24T05:18:53.442Z,995.15
2023-03-24T05:19:53.488Z,995.25
2023-03-24T05:20:53.414Z,995.28
2023-03-24T05:21:53.396Z,995.29
2023-03-24T05:22:53.396Z,995.37
2023-03-24T05:23:53.360Z,995.43
2023-03-24T05:24:53.420Z,995.38
2023-03-24T05:25:53.351Z,995.42
2023-03-24T05:26:53.345Z,995.46
2023-03-24T05:27:53.316Z,995.52
2023-03-24T05:28:53.311Z,995.50
2023-03-24T05:29:53.301Z,995.58
2023-03-24T05:30:53.359Z,995.50
2023-03-24T05:31:53.288Z,995.55
2023-03-24T05:32:53.285Z,995.57
2023-03-24T05:33:53.255Z,995.57
2023-03-24T05:34:53.262Z,995.54
2023-03-24T05:35:53.257Z,995.53
2023-03-24T05:36:53.240Z,995.52
2023-03-24T05:37:53.220Z,995.59
2023-03-24T05:38:53.194Z,995.66
2023-03-24T05:39:55.506Z,995.66
2023-03-24T05:40:53.197Z,995.65
2023-03-24T05:41:53.174Z,995.70
2023-03-24T05:42:53.170Z,995.66
2023-03-24T05:43:53.142Z,995.65
2023-03-24T05:44:53.150Z,995.73
2023-03-24T05:45:53.155Z,995.68
2023-03-24T05:46:53.114Z,995.70
2023-03-24T05:47:53.109Z,995.72
2023-03-24T05:48:53.092Z,995.75
2023-03-24T05:49:53.106Z,995.83
2023-03-24T05:50:53.072Z,995.78
2023-03-24T05:51:53.064Z,995.80
2023-03-24T05:52:53.047Z,995.82
2023-03-24T05:53:53.040Z,995.80
2023-03-24T05:54:53.054Z,995.91
2023-03-24T05:55:53.005Z,995.93
2023-03-24T05:56:53.109Z,995.96
2023-03-24T05:57:53.006Z,995.91
2023-03-24T05:58:52.993Z,995.87
2023-03-24T05:59:52.996Z,995.85
2023-03-24T06:00:52.960Z,995.83
2023-03-24T06:01:52.953Z,995.90
2023-03-24T06:02:52.983Z,995.90
2023-03-24T06:03:53.026Z,995.89
2023-03-24T06:04:52.929Z,995.90
2023-03-24T06:05:52.898Z,995.93
2023-03-24T06:06:52.891Z,995.91
2023-03-24T06:07:52.884Z,996.00
2023-03-24T06:08:52.868Z,996.04
2023-03-24T06:09:52.871Z,995.97
2023-03-24T06:10:52.899Z,996.02
2023-03-24T06:11:52.828Z,995.99
2023-03-24T06:12:52.843Z,996.15
2023-03-24T06:13:52.818Z,996.24
2023-03-24T06:14:52.807Z,996.29
2023-03-24T06:15:52.853Z,996.29
2023-03-24T06:16:52.779Z,996.36
2023-03-24T06:17:52.788Z,996.39
2023-03-24T06:18:52.803Z,996.46
2023-03-24T06:19:52.782Z,996.51
2023-03-24T06:20:52.769Z,996.57
2023-03-24T06:21:52.727Z,996.49
2023-03-24T06:22:52.696Z,996.54
2023-03-24T06:23:52.797Z,996.55
2023-03-24T06:24:52.684Z,996.67
2023-03-24T06:25:52.703Z,996.64
2023-03-24T06:26:52.666Z,996.68
2023-03-24T06:27:52.646Z,996.71
2023-03-24T06:28:52.676Z,996.72
2023-03-24T06:29:52.625Z,996.73
2023-03-24T06:30:52.668Z,996.72
2023-03-24T06:31:52.602Z,996.67
2023-03-24T06:32:52.641Z,996.65
2023-03-24T06:33:52.594Z,996.75
2023-03-24T06:34:52.577Z,996.75
2023-03-24T06:35:52.650Z,996.72
2023-03-24T06:36:52.570Z,996.68
2023-03-24T06:37:52.544Z,996.67
2023-03-24T06:38:53.863Z,996.65
2023-03-24T06:39:52.525Z,996.73
2023-03-24T06:40:52.536Z,996.68
2023-03-24T06:41:52.491Z,996.67
2023-03-24T06:42:52.484Z,996.73
2023-03-24T06:43:52.482Z,996.81
2023-03-24T06:44:52.481Z,996.90
2023-03-24T06:45:52.477Z,997.00
2023-03-24T06:46:52.481Z,997.01
2023-03-24T06:47:52.494Z,997.03
2023-03-24T06:48:52.411Z,996.99
2023-03-24T06:49:52.416Z,996.99
2023-03-24T06:50:52.411Z,996.95
2023-03-24T06:51:52.378Z,996.98
2023-03-24T06:52:52.369Z,996.98
2023-03-24T06:53:52.373Z,997.03
2023-03-24T06:54:52.341Z,997.04
2023-03-24T06:55:52.351Z,997.18
2023-03-24T06:56:52.365Z,997.26
2023-03-24T06:57:52.312Z,997.27
2023-03-24T06:58:52.316Z,997.24
2023-03-24T06:59:52.347Z,997.16
2023-03-24T07:00:52.326Z,997.13
2023-03-24T07:01:52.339Z,997.16
2023-03-24T07:02:52.295Z,997.16
2023-03-24T07:03:52.302Z,997.24
2023-03-24T07:04:52.244Z,997.16
2023-03-24T07:05:52.242Z,997.12
2023-03-24T07:07:06.625Z,997.17
2023-03-24T07:08:27.833Z,997.14
2023-03-24T07:08:53.222Z,997.19
2023-03-24T07:09:52.196Z,997.15
2023-03-24T07:10:52.170Z,997.14
2023-03-24T07:11:52.172Z,997.25
2023-03-24T07:12:52.139Z,997.29
2023-03-24T07:13:52.133Z,997.38
2023-03-24T07:14:52.190Z,997.39
2023-03-24T07:15:52.182Z,997.44
2023-03-24T07:16:52.136Z,997.46
2023-03-24T07:17:52.159Z,997.39
2023-03-24T07:18:52.086Z,997.45
2023-03-24T07:19:52.078Z,997.42
2023-03-24T07:20:52.101Z,997.45
2023-03-24T07:21:52.057Z,997.43
2023-03-24T07:22:52.026Z,997.44
2023-03-24T07:23:52.038Z,997.38
2023-03-24T07:24:54.120Z,997.33
2023-03-24T07:25:52.039Z,997.36
2023-03-24T07:26:51.994Z,997.36
2023-03-24T07:27:51.987Z,997.37
2023-03-24T07:28:51.978Z,997.35
2023-03-24T07:29:51.982Z,997.44
2023-03-24T07:30:54.157Z,997.46
2023-03-24T07:31:51.988Z,997.42
2023-03-24T07:32:52.071Z,997.46
2023-03-24T07:33:51.907Z,997.51
2023-03-24T07:34:51.902Z,997.43
2023-03-24T07:35:51.982Z,997.49
2023-03-24T07:36:51.884Z,997.50
2023-03-24T07:37:52.012Z,997.49
2023-03-24T07:38:51.848Z,997.48
2023-03-24T07:39:51.841Z,997.52
2023-03-24T07:40:51.830Z,997.57
2023-03-24T07:41:51.842Z,997.59
2023-03-24T07:42:51.804Z,997.57
2023-03-24T07:43:51.814Z,997.59
2023-03-24T07:44:51.840Z,997.56
2023-03-24T07:45:51.801Z,997.61
2023-03-24T07:46:51.762Z,997.67
2023-03-24T07:47:51.788Z,997.73
2023-03-24T07:48:51.773Z,997.74
2023-03-24T07:49:51.741Z,997.77
2023-03-24T07:50:51.754Z,997.74
2023-03-24T07:51:51.705Z,997.71
2023-03-24T07:52:51.693Z,997.71
2023-03-24T07:53:51.697Z,997.66
2023-03-24T07:54:51.674Z,997.67
2023-03-24T07:55:52.118Z,997.67
2023-03-24T07:56:51.676Z,997.67
2023-03-24T07:57:51.652Z,997.69
2023-03-24T07:58:51.649Z,997.75
2023-03-24T07:59:51.634Z,997.79
2023-03-24T08:00:51.781Z,997.77
2023-03-24T08:01:55.459Z,997.82
2023-03-24T08:02:52.728Z,997.87
2023-03-24T08:03:51.763Z,997.87
2023-03-24T08:04:51.630Z,997.91
2023-03-24T08:05:51.568Z,997.89
2023-03-24T08:06:51.536Z,997.95
2023-03-24T08:07:51.549Z,997.91
2023-03-24T08:08:51.535Z,997.87
2023-03-24T08:09:51.521Z,997.91
2023-03-24T08:10:51.504Z,997.94
2023-03-24T08:11:51.506Z,997.90
2023-03-24T08:12:51.471Z,997.98
2023-03-24T08:13:51.472Z,997.98
2023-03-24T08:14:51.466Z,997.94
2023-03-24T08:15:51.452Z,997.99
2023-03-24T08:16:51.450Z,997.88
2023-03-24T08:17:51.459Z,997.92
2023-03-24T08:18:51.425Z,997.85
2023-03-24T08:20:00.007Z,997.88
2023-03-24T08:20:52.399Z,997.85
2023-03-24T08:21:51.408Z,997.82
2023-03-24T08:22:51.362Z,997.88
2023-03-24T08:23:51.352Z,997.89
2023-03-24T08:24:51.351Z,997.86
2023-03-24T08:25:51.336Z,997.80
2023-03-24T08:26:51.323Z,997.79
2023-03-24T08:27:51.313Z,997.79
2023-03-24T08:28:51.299Z,997.74
2023-03-24T08:29:51.294Z,997.75
2023-03-24T08:30:51.614Z,997.70
2023-03-24T08:31:51.285Z,997.79
2023-03-24T08:32:51.441Z,997.80
2023-03-24T08:33:51.276Z,997.81
2023-03-24T08:34:51.223Z,997.79
2023-03-24T08:35:51.480Z,997.79
2023-03-24T08:36:51.293Z,997.70
2023-03-24T08:37:51.204Z,997.71
2023-03-24T08:38:51.201Z,997.74
2023-03-24T08:39:51.221Z,997.74
2023-03-24T08:40:51.191Z,997.71
2023-03-24T08:41:51.181Z,997.73
2023-03-24T08:42:51.131Z,997.75
2023-03-24T08:43:51.123Z,997.73
2023-03-24T08:44:51.112Z,997.69
2023-03-24T08:45:51.297Z,997.79
2023-03-24T08:46:51.113Z,997.73
2023-03-24T08:47:51.112Z,997.71
2023-03-24T08:48:51.079Z,997.78
2023-03-24T08:49:51.068Z,997.69
2023-03-24T08:50:51.057Z,997.76
2023-03-24T08:51:51.054Z,997.76
2023-03-24T08:52:51.140Z,997.80
2023-03-24T08:53:51.054Z,997.84
2023-03-24T08:54:50.993Z,997.84
2023-03-24T08:55:51.000Z,997.82
2023-03-24T08:56:51.138Z,997.82
2023-03-24T08:57:50.986Z,997.87
2023-03-24T08:58:50.947Z,997.88
2023-03-24T08:59:51.508Z,997.84
2023-03-24T09:00:50.940Z,997.87
2023-03-24T09:01:50.946Z,997.86
2023-03-24T09:02:50.923Z,997.97
2023-03-24T09:03:50.895Z,998.01
2023-03-24T09:04:50.914Z,998.01
2023-03-24T09:05:50.934Z,998.01
2023-03-24T09:06:50.867Z,998.03
2023-03-24T09:07:50.864Z,998.12
2023-03-24T09:08:50.897Z,998.04
2023-03-24T09:09:50.840Z,998.06
2023-03-24T09:10:50.823Z,998.06
2023-03-24T09:11:50.834Z,998.05
2023-03-24T09:12:50.807Z,998.06
2023-03-24T09:13:50.781Z,998.06
2023-03-24T09:14:50.777Z,998.12
2023-03-24T09:15:51.190Z,998.15
2023-03-24T09:16:50.769Z,998.16
2023-03-24T09:17:50.759Z,998.29
2023-03-24T09:18:50.738Z,998.20
2023-03-24T09:19:50.724Z,998.12
2023-03-24T09:20:50.848Z,998.21
2023-03-24T09:21:50.706Z,998.11
2023-03-24T09:22:50.686Z,998.19
2023-03-24T09:23:50.681Z,998.21
2023-03-24T09:24:50.676Z,998.28
2023-03-24T09:25:50.901Z,998.24
2023-03-24T09:26:50.680Z,998.17
2023-03-24T09:27:50.638Z,998.14
2023-03-24T09:28:50.625Z,998.13
2023-03-24T09:29:50.602Z,998.20
2023-03-24T09:30:50.752Z,998.18
2023-03-24T09:31:50.733Z,998.13
2023-03-24T09:32:50.605Z,998.13
2023-03-24T09:33:50.564Z,998.11
2023-03-24T09:34:50.549Z,998.15
2023-03-24T09:35:50.565Z,998.13
2023-03-24T09:36:50.542Z,998.11
2023-03-24T09:37:50.514Z,998.11
2023-03-24T09:38:50.511Z,998.06
2023-03-24T09:39:50.516Z,998.10
2023-03-24T09:40:50.528Z,998.16
2023-03-24T09:41:50.479Z,998.10
2023-03-24T09:42:50.450Z,998.13
2023-03-24T09:43:50.440Z,998.11
2023-03-24T09:44:50.648Z,998.11
2023-03-24T09:45:50.478Z,998.11
2023-03-24T09:46:50.560Z,998.12
2023-03-24T09:47:50.437Z,998.00
2023-03-24T09:48:50.388Z,998.10
2023-03-24T09:49:50.389Z,998.17
2023-03-24T09:50:50.375Z,998.06
2023-03-24T09:51:50.373Z,998.14
2023-03-24T09:52:50.349Z,998.10
2023-03-24T09:53:50.327Z,998.13
2023-03-24T09:54:50.342Z,998.18
2023-03-24T09:55:50.413Z,998.21
2023-03-24T09:56:51.767Z,998.24
2023-03-24T09:57:50.299Z,998.23
2023-03-24T09:58:50.276Z,998.24
2023-03-24T09:59:50.287Z,998.28
2023-03-24T10:00:50.475Z,998.22
2023-03-24T10:01:50.326Z,998.21
2023-03-24T10:02:51.679Z,998.27
2023-03-24T10:03:50.287Z,998.35
2023-03-24T10:04:50.224Z,998.10
2023-03-24T10:05:50.455Z,998.29
2023-03-24T10:06:50.201Z,998.14
2023-03-24T10:07:50.220Z,998.12
2023-03-24T10:08:50.185Z,998.17
2023-03-24T10:09:50.157Z,998.27
2023-03-24T10:10:50.152Z,998.28
2023-03-24T10:11:50.144Z,998.27
2023-03-24T10:12:50.146Z,998.33
2023-03-24T10:13:50.126Z,998.23
2023-03-24T10:14:50.115Z,998.39
2023-03-24T10:15:50.285Z,998.29
2023-03-24T10:16:50.171Z,998.24
2023-03-24T10:17:50.131Z,998.28
2023-03-24T10:18:50.056Z,998.36
2023-03-24T10:19:50.052Z,998.29
2023-03-24T10:20:50.035Z,998.39
2023-03-24T10:21:50.043Z,998.27
2023-03-24T10:22:50.059Z,998.31
2023-03-24T10:23:49.996Z,998.35
2023-03-24T10:24:49.989Z,998.32
2023-03-24T10:25:50.147Z,998.36
2023-03-24T10:26:49.989Z,998.40
2023-03-24T10:27:49.970Z,998.44
2023-03-24T10:28:49.976Z,998.44
2023-03-24T10:29:49.943Z,998.42
2023-03-24T10:30:49.942Z,998.46
2023-03-24T10:31:49.981Z,998.40
2023-03-24T10:32:50.002Z,998.39
2023-03-24T10:33:49.940Z,998.47
2023-03-24T10:34:49.888Z,998.42
2023-03-24T10:35:50.081Z,998.45
2023-03-24T10:36:49.869Z,998.49
2023-03-24T10:37:49.969Z,998.45
2023-03-24T10:38:49.841Z,998.53
2023-03-24T10:39:49.825Z,998.47
2023-03-24T10:40:49.828Z,998.51
2023-03-24T10:41:49.836Z,998.47
2023-03-24T10:42:49.866Z,998.51
2023-03-24T10:43:50.777Z,998.38
2023-03-24T10:44:49.842Z,998.33
2023-03-24T10:45:49.937Z,998.37
2023-03-24T10:46:49.779Z,998.39
2023-03-24T10:47:49.780Z,998.45
2023-03-24T10:48:49.755Z,998.47
2023-03-24T10:49:49.745Z,998.52
2023-03-24T10:50:49.722Z,998.52
2023-03-24T10:51:49.784Z,998.51
2023-03-24T10:52:49.685Z,998.55
2023-03-24T10:53:49.677Z,998.57
2023-03-24T10:54:49.689Z,998.58
2023-03-24T10:55:49.818Z,998.55
2023-03-24T10:56:49.687Z,998.58
2023-03-24T10:57:49.639Z,998.60
2023-03-24T10:58:49.641Z,998.55
2023-03-24T10:59:49.619Z,998.61
2023-03-24T11:00:49.666Z,998.64
2023-03-24T11:01:49.818Z,998.56
2023-03-24T11:02:49.638Z,998.62
2023-03-24T11:03:49.582Z,998.59
2023-03-24T11:04:49.568Z,998.64
2023-03-24T11:05:49.799Z,998.66
2023-03-24T11:06:49.560Z,998.62
2023-03-24T11:07:49.532Z,998.61
2023-03-24T11:08:49.508Z,998.59
2023-03-24T11:09:49.489Z,998.61
2023-03-24T11:10:49.503Z,998.64
2023-03-24T11:11:49.492Z,998.64
2023-03-24T11:12:49.470Z,998.63
2023-03-24T11:13:49.460Z,998.62
2023-03-24T11:14:49.437Z,998.63
2023-03-24T11:15:49.765Z,998.70
2023-03-24T11:16:49.503Z,998.67
2023-03-24T11:17:49.451Z,998.65
2023-03-24T11:18:49.398Z,998.70
2023-03-24T11:19:49.389Z,998.73
2023-03-24T11:20:49.384Z,998.73
2023-03-24T11:21:49.380Z,998.74
2023-03-24T11:22:49.362Z,998.68
2023-03-24T11:23:49.385Z,998.68
2023-03-24T11:24:49.359Z,998.65
2023-03-24T11:25:49.522Z,998.70
2023-03-24T11:26:49.334Z,998.72
2023-03-24T11:27:49.291Z,998.69
2023-03-24T11:28:49.292Z,998.63
2023-03-24T11:29:49.269Z,998.62
2023-03-24T11:30:49.309Z,998.63
2023-03-24T11:31:49.277Z,998.63
2023-03-24T11:32:49.340Z,998.67
2023-03-24T11:33:49.223Z,998.73
2023-03-24T11:34:49.209Z,998.72
2023-03-24T11:35:59.042Z,998.77
2023-03-24T11:36:50.298Z,998.72
2023-03-24T11:37:49.176Z,998.73
2023-03-24T11:38:49.184Z,998.74
2023-03-24T11:39:49.279Z,998.72
2023-03-24T11:40:49.160Z,998.76
2023-03-24T11:41:49.145Z,998.74
2023-03-24T11:42:49.133Z,998.74
2023-03-24T11:43:49.121Z,998.70
2023-03-24T11:44:49.131Z,998.69
2023-03-24T11:45:49.390Z,998.64
2023-03-24T11:46:49.132Z,998.63
2023-03-24T11:47:49.127Z,998.62
2023-03-24T11:48:49.103Z,998.60
2023-03-24T11:49:49.066Z,998.58
2023-03-24T11:50:49.041Z,998.53
2023-03-24T11:51:49.041Z,998.54
2023-03-24T11:52:49.055Z,998.62
2023-03-24T11:53:49.013Z,998.66
2023-03-24T11:54:49.014Z,998.66
2023-03-24T11:55:49.227Z,998.62
2023-03-24T11:56:49.014Z,998.60
2023-03-24T11:57:48.988Z,998.63
2023-03-24T11:58:48.961Z,998.59
2023-03-24T11:59:48.957Z,998.51
2023-03-24T12:00:48.942Z,998.51
2023-03-24T12:01:48.935Z,998.47
2023-03-24T12:02:49.039Z,998.50
2023-03-24T12:03:49.098Z,998.42
2023-03-24T12:04:48.917Z,998.43
2023-03-24T12:05:50.776Z,998.43
2023-03-24T12:06:48.868Z,998.44
2023-03-24T12:07:48.872Z,998.38
2023-03-24T12:08:48.843Z,998.39
2023-03-24T12:09:48.835Z,998.41
2023-03-24T12:10:48.818Z,998.42
2023-03-24T12:11:48.887Z,998.42
2023-03-24T12:12:48.833Z,998.51
2023-03-24T12:13:48.795Z,998.47
2023-03-24T12:14:48.783Z,998.42
2023-03-24T12:15:48.902Z,998.43
2023-03-24T12:16:48.780Z,998.47
2023-03-24T12:17:48.806Z,998.51
2023-03-24T12:18:48.741Z,998.49
2023-03-24T12:19:48.718Z,998.49
2023-03-24T12:20:48.738Z,998.47
2023-03-24T12:21:48.703Z,998.45
2023-03-24T12:22:48.705Z,998.47
2023-03-24T12:23:48.671Z,998.39
2023-03-24T12:24:48.673Z,998.28
2023-03-24T12:25:48.869Z,998.35
2023-03-24T12:26:48.650Z,998.38
2023-03-24T12:27:48.658Z,998.36
2023-03-24T12:28:48.648Z,998.31